Chaplin, Canada
Current Conditions -  °F | °C
As of 4:45 PM on Monday 22 Dec 2014 (Local Time) from CYYN Reporting Station
Light Snow Light Snow  
Wind Chill: -14°   Ceiling: 1800
Heat Index: -6°   Visibility: 5mi
Dew Point: -7°   Wind: 16mph
Humidity: 93%   Direction: 320°NW
Pressure: 29.85"   Gusts: 22mph
Location:  50.47°N, 106.67°W
Report Text: CYYN 222245Z AUTO 32014G19KT 5SM -SN FEW008 OVC018 M06/M07 A2985 RMK SLP152
Loading
Personal Weather Stations






























Interactive Weather Map New forecast layout! Learn more

10-Day Weather Forecast

Advertisements
Track Severe Weather on mobile